sensor_id;sensor_type;location;lat;lon;timestamp;temperature;humidity
41882;DHT22;27562;47.524;12.404;2023-03-15T00:01:25;2.80;99.90
41882;DHT22;27562;47.524;12.404;2023-03-15T00:03:51;2.80;99.90
41882;DHT22;27562;47.524;12.404;2023-03-15T00:06:19;2.80;99.90
41882;DHT22;27562;47.524;12.404;2023-03-15T00:08:45;2.80;99.90
41882;DHT22;27562;47.524;12.404;2023-03-15T00:11:14;2.80;99.90
41882;DHT22;27562;47.524;12.404;2023-03-15T00:13:40;2.80;99.90
41882;DHT22;27562;47.524;12.404;2023-03-15T00:16:06;2.80;99.90
41882;DHT22;27562;47.524;12.404;2023-03-15T00:18:32;2.80;99.90
41882;DHT22;27562;47.524;12.404;2023-03-15T00:20:57;2.80;99.90
41882;DHT22;27562;47.524;12.404;2023-03-15T00:23:23;2.90;99.90
41882;DHT22;27562;47.524;12.404;2023-03-15T00:25:50;2.90;99.90
41882;DHT22;27562;47.524;12.404;2023-03-15T00:28:16;2.90;99.90
41882;DHT22;27562;47.524;12.404;2023-03-15T00:30:41;2.90;99.90
41882;DHT22;27562;47.524;12.404;2023-03-15T00:33:07;2.90;99.90
41882;DHT22;27562;47.524;12.404;2023-03-15T00:35:37;2.90;99.90
41882;DHT22;27562;47.524;12.404;2023-03-15T00:38:02;2.90;99.90
41882;DHT22;27562;47.524;12.404;2023-03-15T00:40:29;2.80;99.90
41882;DHT22;27562;47.524;12.404;2023-03-15T00:42:55;2.80;99.90
41882;DHT22;27562;47.524;12.404;2023-03-15T00:45:21;2.80;99.90
41882;DHT22;27562;47.524;12.404;2023-03-15T00:47:47;2.70;99.90
41882;DHT22;27562;47.524;12.404;2023-03-15T00:50:13;2.80;99.90
41882;DHT22;27562;47.524;12.404;2023-03-15T00:52:39;2.80;99.90
41882;DHT22;27562;47.524;12.404;2023-03-15T00:55:08;2.80;99.90
41882;DHT22;27562;47.524;12.404;2023-03-15T00:57:34;2.70;99.90
41882;DHT22;27562;47.524;12.404;2023-03-15T00:59:59;2.70;99.90
41882;DHT22;27562;47.524;12.404;2023-03-15T01:02:31;2.60;99.90
41882;DHT22;27562;47.524;12.404;2023-03-15T01:04:56;2.60;99.90
41882;DHT22;27562;47.524;12.404;2023-03-15T01:07:22;2.60;99.90
41882;DHT22;27562;47.524;12.404;2023-03-15T01:09:47;2.60;99.90
41882;DHT22;27562;47.524;12.404;2023-03-15T01:12:13;2.60;99.90
41882;DHT22;27562;47.524;12.404;2023-03-15T01:14:38;2.50;99.90
41882;DHT22;27562;47.524;12.404;2023-03-15T01:17:04;2.50;99.90
41882;DHT22;27562;47.524;12.404;2023-03-15T01:19:30;2.40;99.90
41882;DHT22;27562;47.524;12.404;2023-03-15T01:21:55;2.40;99.90
41882;DHT22;27562;47.524;12.404;2023-03-15T01:24:21;2.30;99.90
41882;DHT22;27562;47.524;12.404;2023-03-15T01:26:46;2.30;99.90
41882;DHT22;27562;47.524;12.404;2023-03-15T01:29:12;2.20;99.90
41882;DHT22;27562;47.524;12.404;2023-03-15T01:31:38;2.20;99.90
41882;DHT22;27562;47.524;12.404;2023-03-15T01:34:04;2.10;99.90
41882;DHT22;27562;47.524;12.404;2023-03-15T01:36:29;2.10;99.90
41882;DHT22;27562;47.524;12.404;2023-03-15T01:38:55;2.10;99.90
41882;DHT22;27562;47.524;12.404;2023-03-15T01:41:22;2.00;99.90
41882;DHT22;27562;47.524;12.404;2023-03-15T01:43:50;2.10;99.90
41882;DHT22;27562;47.524;12.404;2023-03-15T01:51:47;2.00;99.90
41882;DHT22;27562;47.524;12.404;2023-03-15T01:54:31;2.10;99.90
41882;DHT22;27562;47.524;12.404;2023-03-15T01:57:31;2.00;99.90
41882;DHT22;27562;47.524;12.404;2023-03-15T02:00:11;2.00;99.90
41882;DHT22;27562;47.524;12.404;2023-03-15T02:02:43;1.90;99.90
41882;DHT22;27562;47.524;12.404;2023-03-15T02:05:11;1.90;99.90
41882;DHT22;27562;47.524;12.404;2023-03-15T02:07:38;1.90;99.90
41882;DHT22;27562;47.524;12.404;2023-03-15T02:10:10;1.90;99.90
41882;DHT22;27562;47.524;12.404;2023-03-15T02:12:41;2.00;99.90
41882;DHT22;27562;47.524;12.404;2023-03-15T02:15:07;2.00;99.90
41882;DHT22;27562;47.524;12.404;2023-03-15T02:17:38;2.00;99.90
41882;DHT22;27562;47.524;12.404;2023-03-15T02:20:09;2.00;99.90
41882;DHT22;27562;47.524;12.404;2023-03-15T02:25:10;1.80;99.90
41882;DHT22;27562;47.524;12.404;2023-03-15T02:27:39;1.80;99.90
41882;DHT22;27562;47.524;12.404;2023-03-15T02:30:05;1.80;99.90
41882;DHT22;27562;47.524;12.404;2023-03-15T02:32:31;1.80;99.90
41882;DHT22;27562;47.524;12.404;2023-03-15T02:34:57;1.80;99.90
41882;DHT22;27562;47.524;12.404;2023-03-15T02:37:22;1.80;99.90
41882;DHT22;27562;47.524;12.404;2023-03-15T02:39:48;1.90;99.90
41882;DHT22;27562;47.524;12.404;2023-03-15T02:42:14;1.90;99.90
41882;DHT22;27562;47.524;12.404;2023-03-15T02:44:41;1.90;99.90
41882;DHT22;27562;47.524;12.404;2023-03-15T02:47:08;1.80;99.90
41882;DHT22;27562;47.524;12.404;2023-03-15T02:49:36;1.80;99.90
41882;DHT22;27562;47.524;12.404;2023-03-15T02:52:03;1.80;99.90
41882;DHT22;27562;47.524;12.404;2023-03-15T02:54:29;1.80;99.90
41882;DHT22;27562;47.524;12.404;2023-03-15T02:56:59;1.80;99.90
41882;DHT22;27562;47.524;12.404;2023-03-15T02:59:24;1.80;99.90
41882;DHT22;27562;47.524;12.404;2023-03-15T03:01:50;1.80;99.90
41882;DHT22;27562;47.524;12.404;2023-03-15T03:04:15;1.90;99.90
41882;DHT22;27562;47.524;12.404;2023-03-15T03:06:41;1.90;99.90
41882;DHT22;27562;47.524;12.404;2023-03-15T03:09:08;1.90;99.90
41882;DHT22;27562;47.524;12.404;2023-03-15T03:11:34;1.90;99.90
41882;DHT22;27562;47.524;12.404;2023-03-15T03:13:59;1.90;99.90
41882;DHT22;27562;47.524;12.404;2023-03-15T03:16:25;1.90;99.90
41882;DHT22;27562;47.524;12.404;2023-03-15T03:18:50;1.80;99.90
41882;DHT22;27562;47.524;12.404;2023-03-15T03:21:16;1.70;99.90
41882;DHT22;27562;47.524;12.404;2023-03-15T03:23:42;1.70;99.90
41882;DHT22;27562;47.524;12.404;2023-03-15T03:26:11;1.70;99.90
41882;DHT22;27562;47.524;12.404;2023-03-15T03:28:41;1.70;99.90
41882;DHT22;27562;47.524;12.404;2023-03-15T03:31:14;1.70;99.90
41882;DHT22;27562;47.524;12.404;2023-03-15T03:33:39;1.70;99.90
41882;DHT22;27562;47.524;12.404;2023-03-15T03:36:05;1.70;99.90
41882;DHT22;27562;47.524;12.404;2023-03-15T03:38:31;1.70;99.90
41882;DHT22;27562;47.524;12.404;2023-03-15T03:40:56;1.70;99.90
41882;DHT22;27562;47.524;12.404;2023-03-15T03:43:22;1.70;99.90
41882;DHT22;27562;47.524;12.404;2023-03-15T03:45:47;1.60;99.90
41882;DHT22;27562;47.524;12.404;2023-03-15T03:48:13;1.60;99.90
41882;DHT22;27562;47.524;12.404;2023-03-15T03:50:38;1.60;99.90
41882;DHT22;27562;47.524;12.404;2023-03-15T03:53:04;1.60;99.90
41882;DHT22;27562;47.524;12.404;2023-03-15T03:55:29;1.60;99.90
41882;DHT22;27562;47.524;12.404;2023-03-15T03:57:58;1.70;99.90
41882;DHT22;27562;47.524;12.404;2023-03-15T04:00:24;1.70;99.90
41882;DHT22;27562;47.524;12.404;2023-03-15T04:02:49;1.70;99.90
41882;DHT22;27562;47.524;12.404;2023-03-15T04:05:18;1.70;99.90
41882;DHT22;27562;47.524;12.404;2023-03-15T04:07:44;1.70;99.90
41882;DHT22;27562;47.524;12.404;2023-03-15T04:10:09;1.70;99.90
41882;DHT22;27562;47.524;12.404;2023-03-15T04:12:42;1.60;99.90
41882;DHT22;27562;47.524;12.404;2023-03-15T04:15:07;1.60;99.90
41882;DHT22;27562;47.524;12.404;2023-03-15T04:17:33;1.60;99.90
41882;DHT22;27562;47.524;12.404;2023-03-15T04:19:59;1.60;99.90
41882;DHT22;27562;47.524;12.404;2023-03-15T04:22:26;1.60;99.90
41882;DHT22;27562;47.524;12.404;2023-03-15T04:24:52;1.60;99.90
41882;DHT22;27562;47.524;12.404;2023-03-15T04:27:17;1.50;99.90
41882;DHT22;27562;47.524;12.404;2023-03-15T04:29:43;1.50;99.90
41882;DHT22;27562;47.524;12.404;2023-03-15T04:32:09;1.50;99.90
41882;DHT22;27562;47.524;12.404;2023-03-15T04:34:34;1.50;99.90
41882;DHT22;27562;47.524;12.404;2023-03-15T04:37:03;1.50;99.90
41882;DHT22;27562;47.524;12.404;2023-03-15T04:39:29;1.50;99.90
41882;DHT22;27562;47.524;12.404;2023-03-15T04:41:55;1.50;99.90
41882;DHT22;27562;47.524;12.404;2023-03-15T04:44:20;1.50;99.90
41882;DHT22;27562;47.524;12.404;2023-03-15T04:46:46;1.60;99.90
41882;DHT22;27562;47.524;12.404;2023-03-15T04:49:12;1.60;99.90
41882;DHT22;27562;47.524;12.404;2023-03-15T04:51:38;1.50;99.90
41882;DHT22;27562;47.524;12.404;2023-03-15T04:54:03;1.50;99.90
41882;DHT22;27562;47.524;12.404;2023-03-15T04:56:29;1.50;99.90
41882;DHT22;27562;47.524;12.404;2023-03-15T04:58:54;1.50;99.90
41882;DHT22;27562;47.524;12.404;2023-03-15T05:01:21;1.50;99.90
41882;DHT22;27562;47.524;12.404;2023-03-15T05:03:49;1.50;99.90
41882;DHT22;27562;47.524;12.404;2023-03-15T05:06:15;1.50;99.90
41882;DHT22;27562;47.524;12.404;2023-03-15T05:08:40;1.50;99.90
41882;DHT22;27562;47.524;12.404;2023-03-15T05:11:09;1.50;99.90
41882;DHT22;27562;47.524;12.404;2023-03-15T05:13:35;1.60;99.90
41882;DHT22;27562;47.524;12.404;2023-03-15T05:16:01;1.60;99.90
41882;DHT22;27562;47.524;12.404;2023-03-15T05:18:27;1.60;99.90
41882;DHT22;27562;47.524;12.404;2023-03-15T05:20:52;1.60;99.90
41882;DHT22;27562;47.524;12.404;2023-03-15T05:23:20;1.60;99.90
41882;DHT22;27562;47.524;12.404;2023-03-15T05:25:50;1.60;99.90
41882;DHT22;27562;47.524;12.404;2023-03-15T05:28:21;1.60;99.90
41882;DHT22;27562;47.524;12.404;2023-03-15T05:30:48;1.60;99.90
41882;DHT22;27562;47.524;12.404;2023-03-15T05:33:14;1.50;99.90
41882;DHT22;27562;47.524;12.404;2023-03-15T05:35:40;1.50;99.90
41882;DHT22;27562;47.524;12.404;2023-03-15T05:38:06;1.50;99.90
41882;DHT22;27562;47.524;12.404;2023-03-15T05:40:32;1.40;99.90
41882;DHT22;27562;47.524;12.404;2023-03-15T05:42:57;1.40;99.90
41882;DHT22;27562;47.524;12.404;2023-03-15T05:45:23;1.40;99.90
41882;DHT22;27562;47.524;12.404;2023-03-15T05:47:49;1.30;99.90
41882;DHT22;27562;47.524;12.404;2023-03-15T05:50:15;1.20;99.90
41882;DHT22;27562;47.524;12.404;2023-03-15T05:52:40;1.20;99.90
41882;DHT22;27562;47.524;12.404;2023-03-15T05:55:06;1.20;99.90
41882;DHT22;27562;47.524;12.404;2023-03-15T05:57:32;1.20;99.90
41882;DHT22;27562;47.524;12.404;2023-03-15T05:59:57;1.20;99.90
41882;DHT22;27562;47.524;12.404;2023-03-15T06:02:23;1.20;99.90
41882;DHT22;27562;47.524;12.404;2023-03-15T06:04:48;1.20;99.90
41882;DHT22;27562;47.524;12.404;2023-03-15T06:07:14;1.20;99.90
41882;DHT22;27562;47.524;12.404;2023-03-15T06:09:40;1.30;99.90
41882;DHT22;27562;47.524;12.404;2023-03-15T06:12:05;1.30;99.90
41882;DHT22;27562;47.524;12.404;2023-03-15T06:14:31;1.20;99.90
41882;DHT22;27562;47.524;12.404;2023-03-15T06:16:56;1.20;99.90
41882;DHT22;27562;47.524;12.404;2023-03-15T06:19:22;1.10;99.90
41882;DHT22;27562;47.524;12.404;2023-03-15T06:21:48;1.10;99.90
41882;DHT22;27562;47.524;12.404;2023-03-15T06:24:14;1.10;99.90
41882;DHT22;27562;47.524;12.404;2023-03-15T06:26:39;1.10;99.90
41882;DHT22;27562;47.524;12.404;2023-03-15T06:29:05;1.10;99.90
41882;DHT22;27562;47.524;12.404;2023-03-15T06:31:30;1.10;99.90
41882;DHT22;27562;47.524;12.404;2023-03-15T06:33:56;1.10;99.90
41882;DHT22;27562;47.524;12.404;2023-03-15T06:36:21;1.10;99.90
41882;DHT22;27562;47.524;12.404;2023-03-15T06:38:49;1.20;99.90
41882;DHT22;27562;47.524;12.404;2023-03-15T06:41:14;1.20;99.90
41882;DHT22;27562;47.524;12.404;2023-03-15T06:43:40;1.20;99.90
41882;DHT22;27562;47.524;12.404;2023-03-15T06:46:06;1.30;99.90
41882;DHT22;27562;47.524;12.404;2023-03-15T06:48:31;1.40;99.90
41882;DHT22;27562;47.524;12.404;2023-03-15T06:50:57;1.40;99.90
41882;DHT22;27562;47.524;12.404;2023-03-15T06:53:23;1.40;99.90
41882;DHT22;27562;47.524;12.404;2023-03-15T06:55:48;1.40;99.90
41882;DHT22;27562;47.524;12.404;2023-03-15T06:58:17;1.40;99.90
41882;DHT22;27562;47.524;12.404;2023-03-15T07:00:43;1.30;99.90
41882;DHT22;27562;47.524;12.404;2023-03-15T07:03:08;1.20;99.90
41882;DHT22;27562;47.524;12.404;2023-03-15T07:05:34;1.20;99.90
41882;DHT22;27562;47.524;12.404;2023-03-15T07:08:00;1.10;99.90
41882;DHT22;27562;47.524;12.404;2023-03-15T07:10:25;1.00;99.90
41882;DHT22;27562;47.524;12.404;2023-03-15T07:12:51;1.00;99.90
41882;DHT22;27562;47.524;12.404;2023-03-15T07:15:16;1.00;99.90
41882;DHT22;27562;47.524;12.404;2023-03-15T07:17:42;1.00;99.90
41882;DHT22;27562;47.524;12.404;2023-03-15T07:20:09;0.90;99.90
41882;DHT22;27562;47.524;12.404;2023-03-15T07:22:35;0.90;99.90
41882;DHT22;27562;47.524;12.404;2023-03-15T07:25:00;0.90;99.90
41882;DHT22;27562;47.524;12.404;2023-03-15T07:27:26;0.80;99.90
41882;DHT22;27562;47.524;12.404;2023-03-15T07:29:52;0.80;99.90
41882;DHT22;27562;47.524;12.404;2023-03-15T07:32:19;0.80;99.90
41882;DHT22;27562;47.524;12.404;2023-03-15T07:34:45;0.70;99.90
41882;DHT22;27562;47.524;12.404;2023-03-15T07:37:10;0.70;99.90
41882;DHT22;27562;47.524;12.404;2023-03-15T07:39:36;0.80;99.90
41882;DHT22;27562;47.524;12.404;2023-03-15T07:42:02;0.90;99.90
41882;DHT22;27562;47.524;12.404;2023-03-15T07:44:27;0.90;99.90
41882;DHT22;27562;47.524;12.404;2023-03-15T07:46:53;0.90;99.90
41882;DHT22;27562;47.524;12.404;2023-03-15T07:49:20;1.00;99.90
41882;DHT22;27562;47.524;12.404;2023-03-15T07:51:45;1.00;99.90
41882;DHT22;27562;47.524;12.404;2023-03-15T07:54:11;1.00;99.90
41882;DHT22;27562;47.524;12.404;2023-03-15T07:56:36;1.10;99.90
41882;DHT22;27562;47.524;12.404;2023-03-15T07:59:02;1.20;99.90
41882;DHT22;27562;47.524;12.404;2023-03-15T08:01:28;1.20;99.90
41882;DHT22;27562;47.524;12.404;2023-03-15T08:03:53;1.30;99.90
41882;DHT22;27562;47.524;12.404;2023-03-15T08:06:19;1.30;99.90
41882;DHT22;27562;47.524;12.404;2023-03-15T08:08:44;1.30;99.90
41882;DHT22;27562;47.524;12.404;2023-03-15T08:11:11;1.40;99.90
41882;DHT22;27562;47.524;12.404;2023-03-15T08:13:36;1.40;99.90
41882;DHT22;27562;47.524;12.404;2023-03-15T08:16:02;1.40;99.90
41882;DHT22;27562;47.524;12.404;2023-03-15T08:18:27;1.40;99.90
41882;DHT22;27562;47.524;12.404;2023-03-15T08:20:53;1.40;99.90
41882;DHT22;27562;47.524;12.404;2023-03-15T08:23:19;1.30;99.90
41882;DHT22;27562;47.524;12.404;2023-03-15T08:25:46;1.30;99.90
41882;DHT22;27562;47.524;12.404;2023-03-15T08:28:12;1.30;99.90
41882;DHT22;27562;47.524;12.404;2023-03-15T08:30:38;1.30;99.90
41882;DHT22;27562;47.524;12.404;2023-03-15T08:33:04;1.30;99.90
41882;DHT22;27562;47.524;12.404;2023-03-15T08:35:29;1.20;99.90
41882;DHT22;27562;47.524;12.404;2023-03-15T08:37:57;1.30;99.90
41882;DHT22;27562;47.524;12.404;2023-03-15T08:40:22;1.30;99.90
41882;DHT22;27562;47.524;12.404;2023-03-15T08:42:48;1.30;99.90
41882;DHT22;27562;47.524;12.404;2023-03-15T08:45:13;1.30;99.90
41882;DHT22;27562;47.524;12.404;2023-03-15T08:47:40;1.40;99.90
41882;DHT22;27562;47.524;12.404;2023-03-15T08:50:12;1.30;99.90
41882;DHT22;27562;47.524;12.404;2023-03-15T08:52:38;1.40;99.90
41882;DHT22;27562;47.524;12.404;2023-03-15T08:55:04;1.50;99.90
41882;DHT22;27562;47.524;12.404;2023-03-15T08:57:30;1.50;99.90
41882;DHT22;27562;47.524;12.404;2023-03-15T09:00:00;1.60;99.90
41882;DHT22;27562;47.524;12.404;2023-03-15T09:02:26;1.60;99.90
41882;DHT22;27562;47.524;12.404;2023-03-15T09:04:52;1.70;99.90
41882;DHT22;27562;47.524;12.404;2023-03-15T09:07:18;1.80;99.90
41882;DHT22;27562;47.524;12.404;2023-03-15T09:09:43;1.90;99.90
41882;DHT22;27562;47.524;12.404;2023-03-15T09:12:15;2.00;99.90
41882;DHT22;27562;47.524;12.404;2023-03-15T09:14:41;2.00;99.90
41882;DHT22;27562;47.524;12.404;2023-03-15T09:17:07;2.10;99.90
41882;DHT22;27562;47.524;12.404;2023-03-15T09:19:33;2.10;99.90
41882;DHT22;27562;47.524;12.404;2023-03-15T09:21:59;2.20;99.90
41882;DHT22;27562;47.524;12.404;2023-03-15T09:24:24;2.30;99.90
41882;DHT22;27562;47.524;12.404;2023-03-15T09:26:50;2.50;99.90
41882;DHT22;27562;47.524;12.404;2023-03-15T09:29:15;2.60;99.90
41882;DHT22;27562;47.524;12.404;2023-03-15T09:31:41;2.70;99.90
41882;DHT22;27562;47.524;12.404;2023-03-15T09:34:06;2.70;99.90
41882;DHT22;27562;47.524;12.404;2023-03-15T09:36:32;2.80;99.90
41882;DHT22;27562;47.524;12.404;2023-03-15T09:39:01;2.90;99.90
41882;DHT22;27562;47.524;12.404;2023-03-15T09:41:33;3.00;99.90
41882;DHT22;27562;47.524;12.404;2023-03-15T09:44:18;3.10;99.90
41882;DHT22;27562;47.524;12.404;2023-03-15T09:47:03;3.20;99.90
41882;DHT22;27562;47.524;12.404;2023-03-15T09:51:59;3.40;99.90
41882;DHT22;27562;47.524;12.404;2023-03-15T09:54:49;3.50;99.90
41882;DHT22;27562;47.524;12.404;2023-03-15T09:57:19;3.60;99.90
41882;DHT22;27562;47.524;12.404;2023-03-15T09:59:48;3.70;99.90
41882;DHT22;27562;47.524;12.404;2023-03-15T10:02:25;3.90;99.90
41882;DHT22;27562;47.524;12.404;2023-03-15T10:04:55;3.90;99.90
41882;DHT22;27562;47.524;12.404;2023-03-15T10:07:23;3.90;99.90
41882;DHT22;27562;47.524;12.404;2023-03-15T10:09:48;3.90;99.90
41882;DHT22;27562;47.524;12.404;2023-03-15T10:12:15;3.90;99.90
41882;DHT22;27562;47.524;12.404;2023-03-15T10:14:52;3.80;99.90
41882;DHT22;27562;47.524;12.404;2023-03-15T10:17:23;3.80;99.90
41882;DHT22;27562;47.524;12.404;2023-03-15T10:19:59;3.90;99.90
41882;DHT22;27562;47.524;12.404;2023-03-15T10:22:28;3.90;99.90
41882;DHT22;27562;47.524;12.404;2023-03-15T10:27:41;3.90;99.90
41882;DHT22;27562;47.524;12.404;2023-03-15T10:32:42;3.80;99.90
41882;DHT22;27562;47.524;12.404;2023-03-15T10:35:16;3.70;99.90
41882;DHT22;27562;47.524;12.404;2023-03-15T10:37:42;3.60;99.90
41882;DHT22;27562;47.524;12.404;2023-03-15T10:40:08;3.70;99.90
41882;DHT22;27562;47.524;12.404;2023-03-15T10:42:41;3.70;99.90
41882;DHT22;27562;47.524;12.404;2023-03-15T10:45:11;3.70;99.90
41882;DHT22;27562;47.524;12.404;2023-03-15T10:47:43;3.60;99.90
41882;DHT22;27562;47.524;12.404;2023-03-15T10:50:10;3.70;99.90
41882;DHT22;27562;47.524;12.404;2023-03-15T10:52:40;3.60;99.90
41882;DHT22;27562;47.524;12.404;2023-03-15T10:55:15;3.80;99.90
41882;DHT22;27562;47.524;12.404;2023-03-15T10:57:51;3.90;99.90
41882;DHT22;27562;47.524;12.404;2023-03-15T11:02:50;4.30;99.90
41882;DHT22;27562;47.524;12.404;2023-03-15T11:05:16;4.30;99.90
41882;DHT22;27562;47.524;12.404;2023-03-15T11:07:52;4.50;99.90
41882;DHT22;27562;47.524;12.404;2023-03-15T11:10:22;4.50;99.90
41882;DHT22;27562;47.524;12.404;2023-03-15T11:12:48;4.40;99.90
41882;DHT22;27562;47.524;12.404;2023-03-15T11:15:14;4.30;99.90
41882;DHT22;27562;47.524;12.404;2023-03-15T11:17:46;4.10;99.90
41882;DHT22;27562;47.524;12.404;2023-03-15T11:20:31;4.00;99.90
41882;DHT22;27562;47.524;12.404;2023-03-15T11:23:00;4.00;99.90
41882;DHT22;27562;47.524;12.404;2023-03-15T11:25:30;4.10;99.90
41882;DHT22;27562;47.524;12.404;2023-03-15T11:27:57;4.20;99.90
41882;DHT22;27562;47.524;12.404;2023-03-15T11:30:25;4.30;99.90
41882;DHT22;27562;47.524;12.404;2023-03-15T11:32:51;4.40;99.90
41882;DHT22;27562;47.524;12.404;2023-03-15T11:37:47;4.90;99.90
41882;DHT22;27562;47.524;12.404;2023-03-15T11:40:35;5.10;99.90
41882;DHT22;27562;47.524;12.404;2023-03-15T11:43:07;5.20;99.80
41882;DHT22;27562;47.524;12.404;2023-03-15T11:45:37;5.20;98.10
41882;DHT22;27562;47.524;12.404;2023-03-15T11:48:15;5.10;99.90
41882;DHT22;27562;47.524;12.404;2023-03-15T11:50:42;5.20;99.90
41882;DHT22;27562;47.524;12.404;2023-03-15T11:53:09;5.30;99.90
41882;DHT22;27562;47.524;12.404;2023-03-15T11:55:37;5.40;97.90
41882;DHT22;27562;47.524;12.404;2023-03-15T12:00:49;5.40;98.70
41882;DHT22;27562;47.524;12.404;2023-03-15T12:06:00;5.40;99.10
41882;DHT22;27562;47.524;12.404;2023-03-15T12:11:00;5.30;97.30
41882;DHT22;27562;47.524;12.404;2023-03-15T12:13:27;5.40;96.70
41882;DHT22;27562;47.524;12.404;2023-03-15T12:15:53;5.40;95.80
41882;DHT22;27562;47.524;12.404;2023-03-15T12:18:19;5.40;97.30
41882;DHT22;27562;47.524;12.404;2023-03-15T12:20:49;5.30;95.20
41882;DHT22;27562;47.524;12.404;2023-03-15T12:28:20;5.70;94.20
41882;DHT22;27562;47.524;12.404;2023-03-15T12:30:51;5.90;93.90
41882;DHT22;27562;47.524;12.404;2023-03-15T12:33:17;6.00;92.00
41882;DHT22;27562;47.524;12.404;2023-03-15T12:35:44;6.00;92.30
41882;DHT22;27562;47.524;12.404;2023-03-15T12:38:19;6.10;90.90
41882;DHT22;27562;47.524;12.404;2023-03-15T12:43:11;6.00;83.80
41882;DHT22;27562;47.524;12.404;2023-03-15T12:45:37;6.00;87.80
41882;DHT22;27562;47.524;12.404;2023-03-15T12:53:22;6.30;88.80
41882;DHT22;27562;47.524;12.404;2023-03-15T12:55:50;6.20;84.20
41882;DHT22;27562;47.524;12.404;2023-03-15T12:58:16;6.10;84.60
41882;DHT22;27562;47.524;12.404;2023-03-15T13:00:43;6.00;88.40
41882;DHT22;27562;47.524;12.404;2023-03-15T13:08:23;5.70;82.80
41882;DHT22;27562;47.524;12.404;2023-03-15T13:15:48;5.50;83.00
41882;DHT22;27562;47.524;12.404;2023-03-15T13:18:20;5.60;86.60
41882;DHT22;27562;47.524;12.404;2023-03-15T13:26:00;5.80;86.60
41882;DHT22;27562;47.524;12.404;2023-03-15T13:28:38;5.90;85.70
41882;DHT22;27562;47.524;12.404;2023-03-15T13:31:11;5.90;78.60
41882;DHT22;27562;47.524;12.404;2023-03-15T13:33:37;5.90;82.90
41882;DHT22;27562;47.524;12.404;2023-03-15T13:36:05;6.00;85.10
41882;DHT22;27562;47.524;12.404;2023-03-15T13:38:39;6.00;83.90
41882;DHT22;27562;47.524;12.404;2023-03-15T13:41:14;5.90;79.30
41882;DHT22;27562;47.524;12.404;2023-03-15T13:43:40;5.90;83.30
41882;DHT22;27562;47.524;12.404;2023-03-15T13:46:06;5.80;81.10
41882;DHT22;27562;47.524;12.404;2023-03-15T13:48:33;5.90;80.90
41882;DHT22;27562;47.524;12.404;2023-03-15T13:53:44;6.00;71.60
41882;DHT22;27562;47.524;12.404;2023-03-15T13:56:13;5.90;76.40
41882;DHT22;27562;47.524;12.404;2023-03-15T13:58:40;5.80;77.60
41882;DHT22;27562;47.524;12.404;2023-03-15T14:01:07;5.80;81.40
41882;DHT22;27562;47.524;12.404;2023-03-15T14:03:34;5.70;83.40
41882;DHT22;27562;47.524;12.404;2023-03-15T14:06:02;5.60;84.10
41882;DHT22;27562;47.524;12.404;2023-03-15T14:08:34;5.60;81.20
41882;DHT22;27562;47.524;12.404;2023-03-15T14:11:10;5.70;84.20
41882;DHT22;27562;47.524;12.404;2023-03-15T14:16:15;5.80;84.00
41882;DHT22;27562;47.524;12.404;2023-03-15T14:18:41;5.80;82.70
41882;DHT22;27562;47.524;12.404;2023-03-15T14:23:40;5.70;79.70
41882;DHT22;27562;47.524;12.404;2023-03-15T14:28:35;5.70;77.80
41882;DHT22;27562;47.524;12.404;2023-03-15T14:31:00;5.80;80.10
41882;DHT22;27562;47.524;12.404;2023-03-15T14:33:35;5.80;79.60
41882;DHT22;27562;47.524;12.404;2023-03-15T14:36:03;5.90;73.60
41882;DHT22;27562;47.524;12.404;2023-03-15T14:38:36;5.90;70.60
41882;DHT22;27562;47.524;12.404;2023-03-15T14:41:10;5.90;72.70
41882;DHT22;27562;47.524;12.404;2023-03-15T14:43:36;5.90;73.60
41882;DHT22;27562;47.524;12.404;2023-03-15T14:46:01;6.00;73.90
41882;DHT22;27562;47.524;12.404;2023-03-15T14:48:27;6.00;76.40
41882;DHT22;27562;47.524;12.404;2023-03-15T14:50:54;6.00;75.00
41882;DHT22;27562;47.524;12.404;2023-03-15T14:53:21;6.10;76.30
41882;DHT22;27562;47.524;12.404;2023-03-15T14:55:48;6.10;73.70
41882;DHT22;27562;47.524;12.404;2023-03-15T14:58:18;6.10;70.60
41882;DHT22;27562;47.524;12.404;2023-03-15T15:00:45;6.10;70.60
41882;DHT22;27562;47.524;12.404;2023-03-15T15:05:43;6.00;72.60
41882;DHT22;27562;47.524;12.404;2023-03-15T15:08:09;6.00;67.60
41882;DHT22;27562;47.524;12.404;2023-03-15T15:10:37;5.90;68.20
41882;DHT22;27562;47.524;12.404;2023-03-15T15:13:03;5.80;70.60
41882;DHT22;27562;47.524;12.404;2023-03-15T15:15:29;5.80;73.50
41882;DHT22;27562;47.524;12.404;2023-03-15T15:17:55;5.70;79.90
41882;DHT22;27562;47.524;12.404;2023-03-15T15:20:20;5.70;76.10
41882;DHT22;27562;47.524;12.404;2023-03-15T15:22:47;5.60;80.90
41882;DHT22;27562;47.524;12.404;2023-03-15T15:25:22;5.60;76.60
41882;DHT22;27562;47.524;12.404;2023-03-15T15:27:48;5.50;71.80
41882;DHT22;27562;47.524;12.404;2023-03-15T15:30:16;5.40;76.90
41882;DHT22;27562;47.524;12.404;2023-03-15T15:32:42;5.30;77.30
41882;DHT22;27562;47.524;12.404;2023-03-15T15:35:11;5.20;77.70
41882;DHT22;27562;47.524;12.404;2023-03-15T15:37:38;5.20;75.50
41882;DHT22;27562;47.524;12.404;2023-03-15T15:40:06;5.10;76.90
41882;DHT22;27562;47.524;12.404;2023-03-15T15:42:34;5.00;77.90
41882;DHT22;27562;47.524;12.404;2023-03-15T15:45:00;5.00;79.40
41882;DHT22;27562;47.524;12.404;2023-03-15T15:47:29;4.90;78.70
41882;DHT22;27562;47.524;12.404;2023-03-15T15:49:54;4.80;81.30
41882;DHT22;27562;47.524;12.404;2023-03-15T15:52:20;4.80;83.50
41882;DHT22;27562;47.524;12.404;2023-03-15T15:54:47;4.70;86.00
41882;DHT22;27562;47.524;12.404;2023-03-15T15:57:19;4.70;87.30
41882;DHT22;27562;47.524;12.404;2023-03-15T15:59:46;4.70;86.80
41882;DHT22;27562;47.524;12.404;2023-03-15T16:02:13;4.60;87.40
41882;DHT22;27562;47.524;12.404;2023-03-15T16:04:41;4.60;86.00
41882;DHT22;27562;47.524;12.404;2023-03-15T16:07:07;4.50;84.70
41882;DHT22;27562;47.524;12.404;2023-03-15T16:09:33;4.50;82.70
41882;DHT22;27562;47.524;12.404;2023-03-15T16:12:04;4.50;82.50
41882;DHT22;27562;47.524;12.404;2023-03-15T16:14:35;4.50;84.70
41882;DHT22;27562;47.524;12.404;2023-03-15T16:17:01;4.40;85.00
41882;DHT22;27562;47.524;12.404;2023-03-15T16:19:26;4.40;85.50
41882;DHT22;27562;47.524;12.404;2023-03-15T16:21:52;4.30;89.20
41882;DHT22;27562;47.524;12.404;2023-03-15T16:24:22;4.30;88.70
41882;DHT22;27562;47.524;12.404;2023-03-15T16:26:50;4.30;90.40
41882;DHT22;27562;47.524;12.404;2023-03-15T16:29:20;4.30;88.20
41882;DHT22;27562;47.524;12.404;2023-03-15T16:31:47;4.30;87.70
41882;DHT22;27562;47.524;12.404;2023-03-15T16:34:14;4.30;90.30
41882;DHT22;27562;47.524;12.404;2023-03-15T16:36:40;4.20;90.40
41882;DHT22;27562;47.524;12.404;2023-03-15T16:39:10;4.10;90.90
41882;DHT22;27562;47.524;12.404;2023-03-15T16:41:37;4.00;90.80